Terminal Aerodrome Forecast
Issued by NWS Melbourne, FL

Home | Current Version | Previous Version | Text Only | Print | Product List | Glossary On
Versions: 1 2 3 4 5 6 7 8 9 10 11 12 13
856
FTUS42 KMLB 201733
TAFVRB
TAF
KVRB 201733Z 2018/2118 21011KT P6SM FEW040
     FM210000 20004KT P6SM FEW120 SCT250
     FM211400 19008KT P6SM FEW020 BKN250=

USA.gov is the U.S. government's official web portal to all federal, state and local government web resources and services.